sensor_id;sensor_type;location;lat;lon;timestamp;temperature;humidity
14531;DHT22;7352;50.866;4.366;2023-09-19T00:00:43;17.60;99.90
14531;DHT22;7352;50.866;4.366;2023-09-19T00:03:12;17.70;99.90
14531;DHT22;7352;50.866;4.366;2023-09-19T00:05:41;17.70;99.90
14531;DHT22;7352;50.866;4.366;2023-09-19T00:08:10;17.70;99.90
14531;DHT22;7352;50.866;4.366;2023-09-19T00:10:39;17.60;99.90
14531;DHT22;7352;50.866;4.366;2023-09-19T00:13:09;17.80;99.90
14531;DHT22;7352;50.866;4.366;2023-09-19T00:15:40;17.70;99.90
14531;DHT22;7352;50.866;4.366;2023-09-19T00:18:07;17.70;99.90
14531;DHT22;7352;50.866;4.366;2023-09-19T00:20:36;17.60;99.90
14531;DHT22;7352;50.866;4.366;2023-09-19T00:23:05;17.80;99.90
14531;DHT22;7352;50.866;4.366;2023-09-19T00:25:34;17.80;99.90
14531;DHT22;7352;50.866;4.366;2023-09-19T00:28:03;17.80;99.90
14531;DHT22;7352;50.866;4.366;2023-09-19T00:30:30;17.70;99.90
14531;DHT22;7352;50.866;4.366;2023-09-19T00:32:58;17.60;99.90
14531;DHT22;7352;50.866;4.366;2023-09-19T00:35:26;17.70;99.90
14531;DHT22;7352;50.866;4.366;2023-09-19T00:37:55;17.60;99.90
14531;DHT22;7352;50.866;4.366;2023-09-19T00:40:23;17.60;99.90
14531;DHT22;7352;50.866;4.366;2023-09-19T00:42:52;17.60;99.90
14531;DHT22;7352;50.866;4.366;2023-09-19T00:45:24;17.50;99.90
14531;DHT22;7352;50.866;4.366;2023-09-19T00:47:52;17.50;99.90
14531;DHT22;7352;50.866;4.366;2023-09-19T00:50:21;17.50;99.90
14531;DHT22;7352;50.866;4.366;2023-09-19T00:52:50;17.30;99.90
14531;DHT22;7352;50.866;4.366;2023-09-19T00:55:18;17.50;99.90
14531;DHT22;7352;50.866;4.366;2023-09-19T00:57:48;17.50;99.90
14531;DHT22;7352;50.866;4.366;2023-09-19T01:00:15;17.50;99.90
14531;DHT22;7352;50.866;4.366;2023-09-19T01:02:45;17.50;99.90
14531;DHT22;7352;50.866;4.366;2023-09-19T01:05:13;17.40;99.90
14531;DHT22;7352;50.866;4.366;2023-09-19T01:07:41;17.30;99.90
14531;DHT22;7352;50.866;4.366;2023-09-19T01:10:12;17.40;99.90
14531;DHT22;7352;50.866;4.366;2023-09-19T01:12:51;17.50;99.90
14531;DHT22;7352;50.866;4.366;2023-09-19T01:15:28;17.40;99.90
14531;DHT22;7352;50.866;4.366;2023-09-19T01:18:03;17.30;99.90
14531;DHT22;7352;50.866;4.366;2023-09-19T01:20:41;17.30;99.90
14531;DHT22;7352;50.866;4.366;2023-09-19T01:23:20;17.30;99.90
14531;DHT22;7352;50.866;4.366;2023-09-19T01:26:05;17.20;99.90
14531;DHT22;7352;50.866;4.366;2023-09-19T01:28:52;17.20;99.90
14531;DHT22;7352;50.866;4.366;2023-09-19T01:31:25;17.30;99.90
14531;DHT22;7352;50.866;4.366;2023-09-19T01:34:00;17.30;99.90
14531;DHT22;7352;50.866;4.366;2023-09-19T01:36:31;17.20;99.90
14531;DHT22;7352;50.866;4.366;2023-09-19T01:39:02;17.30;99.90
14531;DHT22;7352;50.866;4.366;2023-09-19T01:41:45;17.20;99.90
14531;DHT22;7352;50.866;4.366;2023-09-19T01:44:29;17.20;99.90
14531;DHT22;7352;50.866;4.366;2023-09-19T01:47:03;17.10;99.90
14531;DHT22;7352;50.866;4.366;2023-09-19T01:49:36;17.10;99.90
14531;DHT22;7352;50.866;4.366;2023-09-19T01:52:10;17.10;99.90
14531;DHT22;7352;50.866;4.366;2023-09-19T01:54:46;17.10;99.90
14531;DHT22;7352;50.866;4.366;2023-09-19T01:57:17;17.30;99.90
14531;DHT22;7352;50.866;4.366;2023-09-19T01:59:54;17.30;99.90
14531;DHT22;7352;50.866;4.366;2023-09-19T02:02:26;17.30;99.90
14531;DHT22;7352;50.866;4.366;2023-09-19T02:04:55;17.30;99.90
14531;DHT22;7352;50.866;4.366;2023-09-19T02:07:22;17.10;99.90
14531;DHT22;7352;50.866;4.366;2023-09-19T02:09:49;17.20;99.90
14531;DHT22;7352;50.866;4.366;2023-09-19T02:12:16;17.30;99.90
14531;DHT22;7352;50.866;4.366;2023-09-19T02:14:43;17.30;99.90
14531;DHT22;7352;50.866;4.366;2023-09-19T02:17:10;17.40;99.90
14531;DHT22;7352;50.866;4.366;2023-09-19T02:19:39;17.30;99.90
14531;DHT22;7352;50.866;4.366;2023-09-19T02:22:07;17.50;99.90
14531;DHT22;7352;50.866;4.366;2023-09-19T02:24:36;17.40;99.90
14531;DHT22;7352;50.866;4.366;2023-09-19T02:27:04;17.40;99.90
14531;DHT22;7352;50.866;4.366;2023-09-19T02:29:31;17.40;99.90
14531;DHT22;7352;50.866;4.366;2023-09-19T02:32:00;17.20;99.90
14531;DHT22;7352;50.866;4.366;2023-09-19T02:34:27;17.30;99.90
14531;DHT22;7352;50.866;4.366;2023-09-19T02:36:55;17.30;99.90
14531;DHT22;7352;50.866;4.366;2023-09-19T02:39:25;17.30;99.90
14531;DHT22;7352;50.866;4.366;2023-09-19T02:41:53;17.30;99.90
14531;DHT22;7352;50.866;4.366;2023-09-19T02:44:20;17.30;99.90
14531;DHT22;7352;50.866;4.366;2023-09-19T02:46:49;17.40;99.90
14531;DHT22;7352;50.866;4.366;2023-09-19T02:49:16;17.30;99.90
14531;DHT22;7352;50.866;4.366;2023-09-19T02:51:43;17.30;99.90
14531;DHT22;7352;50.866;4.366;2023-09-19T02:54:12;17.20;99.90
14531;DHT22;7352;50.866;4.366;2023-09-19T02:56:41;17.20;99.90
14531;DHT22;7352;50.866;4.366;2023-09-19T02:59:08;17.20;99.90
14531;DHT22;7352;50.866;4.366;2023-09-19T03:01:36;17.10;99.90
14531;DHT22;7352;50.866;4.366;2023-09-19T03:04:04;17.00;99.90
14531;DHT22;7352;50.866;4.366;2023-09-19T03:06:33;17.10;99.90
14531;DHT22;7352;50.866;4.366;2023-09-19T03:09:00;17.00;99.90
14531;DHT22;7352;50.866;4.366;2023-09-19T03:11:30;16.90;99.90
14531;DHT22;7352;50.866;4.366;2023-09-19T03:13:57;16.80;99.90
14531;DHT22;7352;50.866;4.366;2023-09-19T03:16:24;16.80;99.90
14531;DHT22;7352;50.866;4.366;2023-09-19T03:18:51;16.90;99.90
14531;DHT22;7352;50.866;4.366;2023-09-19T03:21:18;17.00;99.90
14531;DHT22;7352;50.866;4.366;2023-09-19T03:23:47;17.10;99.90
14531;DHT22;7352;50.866;4.366;2023-09-19T03:26:14;17.00;99.90
14531;DHT22;7352;50.866;4.366;2023-09-19T03:28:44;17.00;99.90
14531;DHT22;7352;50.866;4.366;2023-09-19T03:31:11;16.80;99.90
14531;DHT22;7352;50.866;4.366;2023-09-19T03:33:38;16.70;99.90
14531;DHT22;7352;50.866;4.366;2023-09-19T03:36:06;16.80;99.90
14531;DHT22;7352;50.866;4.366;2023-09-19T03:38:33;16.80;99.90
14531;DHT22;7352;50.866;4.366;2023-09-19T03:41:01;16.90;99.90
14531;DHT22;7352;50.866;4.366;2023-09-19T03:43:28;16.90;99.90
14531;DHT22;7352;50.866;4.366;2023-09-19T03:46:00;16.90;99.90
14531;DHT22;7352;50.866;4.366;2023-09-19T03:48:27;16.90;99.90
14531;DHT22;7352;50.866;4.366;2023-09-19T03:50:55;17.00;99.90
14531;DHT22;7352;50.866;4.366;2023-09-19T03:53:23;16.90;99.90
14531;DHT22;7352;50.866;4.366;2023-09-19T03:55:49;16.80;99.90
14531;DHT22;7352;50.866;4.366;2023-09-19T03:58:16;16.80;99.90
14531;DHT22;7352;50.866;4.366;2023-09-19T04:00:44;16.80;99.90
14531;DHT22;7352;50.866;4.366;2023-09-19T04:03:12;16.80;99.90
14531;DHT22;7352;50.866;4.366;2023-09-19T04:05:45;16.80;99.90
14531;DHT22;7352;50.866;4.366;2023-09-19T04:08:12;16.70;99.90
14531;DHT22;7352;50.866;4.366;2023-09-19T04:10:42;16.50;99.90
14531;DHT22;7352;50.866;4.366;2023-09-19T04:13:09;16.60;99.90
14531;DHT22;7352;50.866;4.366;2023-09-19T04:15:36;16.60;99.90
14531;DHT22;7352;50.866;4.366;2023-09-19T04:18:03;16.60;99.90
14531;DHT22;7352;50.866;4.366;2023-09-19T04:20:32;16.60;99.90
14531;DHT22;7352;50.866;4.366;2023-09-19T04:22:59;16.60;99.90
14531;DHT22;7352;50.866;4.366;2023-09-19T04:25:26;16.70;99.90
14531;DHT22;7352;50.866;4.366;2023-09-19T04:27:54;16.70;99.90
14531;DHT22;7352;50.866;4.366;2023-09-19T04:30:21;16.60;99.90
14531;DHT22;7352;50.866;4.366;2023-09-19T04:32:50;16.70;99.90
14531;DHT22;7352;50.866;4.366;2023-09-19T04:35:17;16.60;99.90
14531;DHT22;7352;50.866;4.366;2023-09-19T04:37:46;16.50;99.90
14531;DHT22;7352;50.866;4.366;2023-09-19T04:40:13;16.60;99.90
14531;DHT22;7352;50.866;4.366;2023-09-19T04:42:43;16.50;99.90
14531;DHT22;7352;50.866;4.366;2023-09-19T04:45:10;16.50;99.90
14531;DHT22;7352;50.866;4.366;2023-09-19T04:47:38;16.60;99.90
14531;DHT22;7352;50.866;4.366;2023-09-19T04:50:08;16.60;99.90
14531;DHT22;7352;50.866;4.366;2023-09-19T04:52:40;16.60;99.90
14531;DHT22;7352;50.866;4.366;2023-09-19T04:55:11;16.60;99.90
14531;DHT22;7352;50.866;4.366;2023-09-19T04:57:42;16.50;99.90
14531;DHT22;7352;50.866;4.366;2023-09-19T05:00:12;16.50;99.90
14531;DHT22;7352;50.866;4.366;2023-09-19T05:02:40;16.50;99.90
14531;DHT22;7352;50.866;4.366;2023-09-19T05:05:09;16.50;99.90
14531;DHT22;7352;50.866;4.366;2023-09-19T05:07:37;16.50;99.90
14531;DHT22;7352;50.866;4.366;2023-09-19T05:10:05;16.30;99.90
14531;DHT22;7352;50.866;4.366;2023-09-19T05:12:34;16.40;99.90
14531;DHT22;7352;50.866;4.366;2023-09-19T05:15:02;16.30;99.90
14531;DHT22;7352;50.866;4.366;2023-09-19T05:17:29;16.30;99.90
14531;DHT22;7352;50.866;4.366;2023-09-19T05:19:57;16.40;99.90
14531;DHT22;7352;50.866;4.366;2023-09-19T05:22:27;16.50;99.90
14531;DHT22;7352;50.866;4.366;2023-09-19T05:24:54;16.40;99.90
14531;DHT22;7352;50.866;4.366;2023-09-19T05:27:21;16.50;99.90
14531;DHT22;7352;50.866;4.366;2023-09-19T05:29:50;16.50;99.90
14531;DHT22;7352;50.866;4.366;2023-09-19T05:32:18;16.50;99.90
14531;DHT22;7352;50.866;4.366;2023-09-19T05:34:46;16.50;99.90
14531;DHT22;7352;50.866;4.366;2023-09-19T05:37:14;16.60;99.90
14531;DHT22;7352;50.866;4.366;2023-09-19T05:39:42;16.60;99.90
14531;DHT22;7352;50.866;4.366;2023-09-19T05:42:10;16.50;99.90
14531;DHT22;7352;50.866;4.366;2023-09-19T05:44:37;16.50;99.90
14531;DHT22;7352;50.866;4.366;2023-09-19T05:47:06;16.40;99.90
14531;DHT22;7352;50.866;4.366;2023-09-19T05:49:34;16.40;99.90
14531;DHT22;7352;50.866;4.366;2023-09-19T05:52:04;16.30;99.90
14531;DHT22;7352;50.866;4.366;2023-09-19T05:54:34;16.30;99.90
14531;DHT22;7352;50.866;4.366;2023-09-19T05:57:03;16.30;99.90
14531;DHT22;7352;50.866;4.366;2023-09-19T05:59:30;16.40;99.90
14531;DHT22;7352;50.866;4.366;2023-09-19T06:01:59;16.40;99.90
14531;DHT22;7352;50.866;4.366;2023-09-19T06:04:28;16.30;99.90
14531;DHT22;7352;50.866;4.366;2023-09-19T06:06:57;16.40;99.90
14531;DHT22;7352;50.866;4.366;2023-09-19T06:09:24;16.50;99.90
14531;DHT22;7352;50.866;4.366;2023-09-19T06:11:53;16.60;99.90
14531;DHT22;7352;50.866;4.366;2023-09-19T06:14:23;16.60;99.90
14531;DHT22;7352;50.866;4.366;2023-09-19T06:16:50;16.40;99.90
14531;DHT22;7352;50.866;4.366;2023-09-19T06:19:19;16.40;99.90
14531;DHT22;7352;50.866;4.366;2023-09-19T06:21:49;16.60;99.90
14531;DHT22;7352;50.866;4.366;2023-09-19T06:24:16;16.50;99.90
14531;DHT22;7352;50.866;4.366;2023-09-19T06:26:45;16.50;99.90
14531;DHT22;7352;50.866;4.366;2023-09-19T06:29:13;16.70;99.90
14531;DHT22;7352;50.866;4.366;2023-09-19T06:31:40;16.80;99.90
14531;DHT22;7352;50.866;4.366;2023-09-19T06:34:08;16.80;99.90
14531;DHT22;7352;50.866;4.366;2023-09-19T06:36:35;16.80;99.90
14531;DHT22;7352;50.866;4.366;2023-09-19T06:39:04;16.70;99.90
14531;DHT22;7352;50.866;4.366;2023-09-19T06:41:32;16.70;99.90
14531;DHT22;7352;50.866;4.366;2023-09-19T06:43:59;16.80;99.90
14531;DHT22;7352;50.866;4.366;2023-09-19T06:46:26;16.90;99.90
14531;DHT22;7352;50.866;4.366;2023-09-19T06:48:58;16.90;99.90
14531;DHT22;7352;50.866;4.366;2023-09-19T06:51:25;16.90;99.90
14531;DHT22;7352;50.866;4.366;2023-09-19T06:53:52;17.00;99.90
14531;DHT22;7352;50.866;4.366;2023-09-19T06:56:21;17.00;99.90
14531;DHT22;7352;50.866;4.366;2023-09-19T06:58:50;16.90;99.90
14531;DHT22;7352;50.866;4.366;2023-09-19T07:01:17;16.90;99.90
14531;DHT22;7352;50.866;4.366;2023-09-19T07:03:47;16.90;99.90
14531;DHT22;7352;50.866;4.366;2023-09-19T07:06:16;16.90;99.90
14531;DHT22;7352;50.866;4.366;2023-09-19T07:08:46;16.80;99.90
14531;DHT22;7352;50.866;4.366;2023-09-19T07:11:16;16.90;99.90
14531;DHT22;7352;50.866;4.366;2023-09-19T07:13:44;16.90;99.90
14531;DHT22;7352;50.866;4.366;2023-09-19T07:16:12;16.90;99.90
14531;DHT22;7352;50.866;4.366;2023-09-19T07:18:52;16.90;99.90
14531;DHT22;7352;50.866;4.366;2023-09-19T07:21:22;16.90;99.90
14531;DHT22;7352;50.866;4.366;2023-09-19T07:23:49;17.00;99.90
14531;DHT22;7352;50.866;4.366;2023-09-19T07:26:16;17.10;99.90
14531;DHT22;7352;50.866;4.366;2023-09-19T07:28:45;17.10;99.90
14531;DHT22;7352;50.866;4.366;2023-09-19T07:31:12;17.00;99.90
14531;DHT22;7352;50.866;4.366;2023-09-19T07:33:40;17.20;99.90
14531;DHT22;7352;50.866;4.366;2023-09-19T07:36:10;17.20;99.90
14531;DHT22;7352;50.866;4.366;2023-09-19T07:38:39;17.20;99.90
14531;DHT22;7352;50.866;4.366;2023-09-19T07:41:06;17.30;99.90
14531;DHT22;7352;50.866;4.366;2023-09-19T07:43:34;17.40;99.90
14531;DHT22;7352;50.866;4.366;2023-09-19T07:46:05;17.40;99.90
14531;DHT22;7352;50.866;4.366;2023-09-19T07:48:34;17.50;99.90
14531;DHT22;7352;50.866;4.366;2023-09-19T07:51:04;17.40;99.90
14531;DHT22;7352;50.866;4.366;2023-09-19T07:53:31;17.50;99.90
14531;DHT22;7352;50.866;4.366;2023-09-19T07:56:04;17.40;99.90
14531;DHT22;7352;50.866;4.366;2023-09-19T07:58:31;17.40;99.90
14531;DHT22;7352;50.866;4.366;2023-09-19T08:01:04;17.50;99.90
14531;DHT22;7352;50.866;4.366;2023-09-19T08:03:32;17.40;99.90
14531;DHT22;7352;50.866;4.366;2023-09-19T08:06:00;17.50;99.90
14531;DHT22;7352;50.866;4.366;2023-09-19T08:08:27;17.60;99.90
14531;DHT22;7352;50.866;4.366;2023-09-19T08:10:56;17.50;99.90
14531;DHT22;7352;50.866;4.366;2023-09-19T08:13:23;17.70;99.90
14531;DHT22;7352;50.866;4.366;2023-09-19T08:15:50;17.80;99.90
14531;DHT22;7352;50.866;4.366;2023-09-19T08:18:20;18.00;99.90
14531;DHT22;7352;50.866;4.366;2023-09-19T08:20:52;17.90;99.90
14531;DHT22;7352;50.866;4.366;2023-09-19T08:23:19;17.90;99.90
14531;DHT22;7352;50.866;4.366;2023-09-19T08:25:46;18.00;99.90
14531;DHT22;7352;50.866;4.366;2023-09-19T08:28:14;18.10;99.90
14531;DHT22;7352;50.866;4.366;2023-09-19T08:30:46;18.20;99.90
14531;DHT22;7352;50.866;4.366;2023-09-19T08:33:13;18.10;99.90
14531;DHT22;7352;50.866;4.366;2023-09-19T08:39:28;18.10;99.90
14531;DHT22;7352;50.866;4.366;2023-09-19T08:42:19;18.10;99.90
14531;DHT22;7352;50.866;4.366;2023-09-19T08:45:01;18.20;99.90
14531;DHT22;7352;50.866;4.366;2023-09-19T08:48:03;18.20;99.90
14531;DHT22;7352;50.866;4.366;2023-09-19T09:01:40;18.70;99.90
14531;DHT22;7352;50.866;4.366;2023-09-19T09:04:20;18.90;99.90
14531;DHT22;7352;50.866;4.366;2023-09-19T09:07:03;18.90;99.90
14531;DHT22;7352;50.866;4.366;2023-09-19T09:10:00;19.00;99.90
14531;DHT22;7352;50.866;4.366;2023-09-19T09:13:13;19.00;99.90
14531;DHT22;7352;50.866;4.366;2023-09-19T09:22:53;19.10;99.90
14531;DHT22;7352;50.866;4.366;2023-09-19T09:33:19;19.50;99.90
14531;DHT22;7352;50.866;4.366;2023-09-19T09:37:43;19.50;99.90
14531;DHT22;7352;50.866;4.366;2023-09-19T09:40:25;19.50;99.90
14531;DHT22;7352;50.866;4.366;2023-09-19T09:43:46;19.60;99.90
14531;DHT22;7352;50.866;4.366;2023-09-19T09:46:28;19.60;99.90
14531;DHT22;7352;50.866;4.366;2023-09-19T09:52:53;19.60;99.90
14531;DHT22;7352;50.866;4.366;2023-09-19T09:56:07;19.50;99.90
14531;DHT22;7352;50.866;4.366;2023-09-19T09:58:52;19.50;99.90
14531;DHT22;7352;50.866;4.366;2023-09-19T10:01:46;19.40;99.90
14531;DHT22;7352;50.866;4.366;2023-09-19T10:04:58;19.30;99.90
14531;DHT22;7352;50.866;4.366;2023-09-19T10:14:08;19.30;99.90
14531;DHT22;7352;50.866;4.366;2023-09-19T10:17:08;19.20;99.90
14531;DHT22;7352;50.866;4.366;2023-09-19T10:21:46;19.30;99.90
14531;DHT22;7352;50.866;4.366;2023-09-19T10:24:01;19.60;99.90
14531;DHT22;7352;50.866;4.366;2023-09-19T10:26:41;19.60;99.90
14531;DHT22;7352;50.866;4.366;2023-09-19T10:29:18;19.60;99.90
14531;DHT22;7352;50.866;4.366;2023-09-19T10:31:53;19.60;99.90
14531;DHT22;7352;50.866;4.366;2023-09-19T10:34:34;19.70;99.90
14531;DHT22;7352;50.866;4.366;2023-09-19T10:37:12;19.60;99.90
14531;DHT22;7352;50.866;4.366;2023-09-19T10:43:16;19.70;99.90
14531;DHT22;7352;50.866;4.366;2023-09-19T10:46:17;19.70;99.90
14531;DHT22;7352;50.866;4.366;2023-09-19T10:49:13;19.80;99.90
14531;DHT22;7352;50.866;4.366;2023-09-19T10:51:54;19.90;99.90
14531;DHT22;7352;50.866;4.366;2023-09-19T10:54:48;20.00;99.90
14531;DHT22;7352;50.866;4.366;2023-09-19T10:57:38;20.00;99.90
14531;DHT22;7352;50.866;4.366;2023-09-19T11:00:14;20.10;99.90
14531;DHT22;7352;50.866;4.366;2023-09-19T11:06:41;20.20;99.90
14531;DHT22;7352;50.866;4.366;2023-09-19T11:09:13;20.30;99.90
14531;DHT22;7352;50.866;4.366;2023-09-19T11:11:59;20.50;99.90
14531;DHT22;7352;50.866;4.366;2023-09-19T11:14:43;20.50;99.90
14531;DHT22;7352;50.866;4.366;2023-09-19T11:17:34;20.50;99.90
14531;DHT22;7352;50.866;4.366;2023-09-19T11:20:22;20.70;99.90
14531;DHT22;7352;50.866;4.366;2023-09-19T11:23:35;20.80;99.90
14531;DHT22;7352;50.866;4.366;2023-09-19T11:27:12;20.80;99.90
14531;DHT22;7352;50.866;4.366;2023-09-19T11:30:31;20.90;99.90
14531;DHT22;7352;50.866;4.366;2023-09-19T11:33:25;21.00;99.90
14531;DHT22;7352;50.866;4.366;2023-09-19T11:36:10;21.00;99.90
14531;DHT22;7352;50.866;4.366;2023-09-19T11:39:05;21.00;99.90
14531;DHT22;7352;50.866;4.366;2023-09-19T11:41:56;20.90;99.90
14531;DHT22;7352;50.866;4.366;2023-09-19T11:50:39;21.20;99.90
14531;DHT22;7352;50.866;4.366;2023-09-19T11:51:40;21.40;99.90
14531;DHT22;7352;50.866;4.366;2023-09-19T11:54:49;21.30;99.90
14531;DHT22;7352;50.866;4.366;2023-09-19T11:57:44;21.40;99.90
14531;DHT22;7352;50.866;4.366;2023-09-19T12:01:03;21.40;99.90
14531;DHT22;7352;50.866;4.366;2023-09-19T12:07:46;21.60;99.90
14531;DHT22;7352;50.866;4.366;2023-09-19T12:14:14;21.50;99.90
14531;DHT22;7352;50.866;4.366;2023-09-19T12:17:41;21.60;99.90
14531;DHT22;7352;50.866;4.366;2023-09-19T12:20:16;21.60;99.90
14531;DHT22;7352;50.866;4.366;2023-09-19T12:23:00;21.70;99.90
14531;DHT22;7352;50.866;4.366;2023-09-19T12:25:59;21.80;99.90
14531;DHT22;7352;50.866;4.366;2023-09-19T12:28:46;21.80;99.90
14531;DHT22;7352;50.866;4.366;2023-09-19T12:31:29;21.70;99.90
14531;DHT22;7352;50.866;4.366;2023-09-19T12:34:14;21.70;99.90
14531;DHT22;7352;50.866;4.366;2023-09-19T12:37:09;21.70;99.90
14531;DHT22;7352;50.866;4.366;2023-09-19T12:40:08;21.70;99.90
14531;DHT22;7352;50.866;4.366;2023-09-19T12:43:21;21.70;99.90
14531;DHT22;7352;50.866;4.366;2023-09-19T12:56:09;21.80;99.90
14531;DHT22;7352;50.866;4.366;2023-09-19T13:07:25;21.90;99.90
14531;DHT22;7352;50.866;4.366;2023-09-19T13:10:01;22.10;99.90
14531;DHT22;7352;50.866;4.366;2023-09-19T13:29:54;22.10;99.90
14531;DHT22;7352;50.866;4.366;2023-09-19T14:49:40;22.90;99.90
14531;DHT22;7352;50.866;4.366;2023-09-19T14:52:12;22.60;99.90
14531;DHT22;7352;50.866;4.366;2023-09-19T14:54:42;22.50;99.90
14531;DHT22;7352;50.866;4.366;2023-09-19T14:57:15;22.20;99.90
14531;DHT22;7352;50.866;4.366;2023-09-19T14:59:58;22.20;99.90
14531;DHT22;7352;50.866;4.366;2023-09-19T15:02:31;22.20;99.90
14531;DHT22;7352;50.866;4.366;2023-09-19T15:07:46;22.00;99.90
14531;DHT22;7352;50.866;4.366;2023-09-19T15:10:34;22.00;99.90
14531;DHT22;7352;50.866;4.366;2023-09-19T15:13:06;22.10;99.90
14531;DHT22;7352;50.866;4.366;2023-09-19T15:15:35;22.00;99.90
14531;DHT22;7352;50.866;4.366;2023-09-19T15:18:04;22.00;99.90
14531;DHT22;7352;50.866;4.366;2023-09-19T15:20:34;22.00;99.90
14531;DHT22;7352;50.866;4.366;2023-09-19T15:23:12;22.10;99.90
14531;DHT22;7352;50.866;4.366;2023-09-19T15:25:50;21.90;99.90
14531;DHT22;7352;50.866;4.366;2023-09-19T15:28:26;21.90;99.90
14531;DHT22;7352;50.866;4.366;2023-09-19T15:34:32;21.80;99.90
14531;DHT22;7352;50.866;4.366;2023-09-19T15:37:17;21.70;99.90
14531;DHT22;7352;50.866;4.366;2023-09-19T15:40:06;21.80;99.90
14531;DHT22;7352;50.866;4.366;2023-09-19T15:42:42;21.60;99.90
14531;DHT22;7352;50.866;4.366;2023-09-19T15:45:16;21.50;99.90
14531;DHT22;7352;50.866;4.366;2023-09-19T15:48:06;21.60;99.90
14531;DHT22;7352;50.866;4.366;2023-09-19T15:50:46;21.60;99.90
14531;DHT22;7352;50.866;4.366;2023-09-19T16:00:04;21.60;99.90
14531;DHT22;7352;50.866;4.366;2023-09-19T16:02:44;21.60;99.90
14531;DHT22;7352;50.866;4.366;2023-09-19T16:05:12;21.60;99.90
14531;DHT22;7352;50.866;4.366;2023-09-19T16:07:40;21.60;99.90
14531;DHT22;7352;50.866;4.366;2023-09-19T16:10:09;21.40;99.90
14531;DHT22;7352;50.866;4.366;2023-09-19T16:12:37;21.30;99.90
14531;DHT22;7352;50.866;4.366;2023-09-19T16:15:08;21.40;99.90
14531;DHT22;7352;50.866;4.366;2023-09-19T16:17:39;21.30;99.90
14531;DHT22;7352;50.866;4.366;2023-09-19T16:20:07;21.40;99.90
14531;DHT22;7352;50.866;4.366;2023-09-19T16:22:38;21.30;99.90
14531;DHT22;7352;50.866;4.366;2023-09-19T16:25:06;21.30;99.90
14531;DHT22;7352;50.866;4.366;2023-09-19T16:27:37;21.30;99.90
14531;DHT22;7352;50.866;4.366;2023-09-19T16:30:22;21.10;99.90
14531;DHT22;7352;50.866;4.366;2023-09-19T16:32:49;21.20;99.90
14531;DHT22;7352;50.866;4.366;2023-09-19T16:35:16;21.10;99.90
14531;DHT22;7352;50.866;4.366;2023-09-19T16:37:44;21.00;99.90
14531;DHT22;7352;50.866;4.366;2023-09-19T16:40:12;21.10;99.90
14531;DHT22;7352;50.866;4.366;2023-09-19T16:42:45;21.10;99.90
14531;DHT22;7352;50.866;4.366;2023-09-19T16:45:58;21.10;99.90
14531;DHT22;7352;50.866;4.366;2023-09-19T16:49:06;21.10;99.90
14531;DHT22;7352;50.866;4.366;2023-09-19T16:51:51;20.90;99.90
14531;DHT22;7352;50.866;4.366;2023-09-19T16:54:24;20.80;99.90
14531;DHT22;7352;50.866;4.366;2023-09-19T16:56:52;20.70;99.90
14531;DHT22;7352;50.866;4.366;2023-09-19T16:59:20;20.70;99.90
14531;DHT22;7352;50.866;4.366;2023-09-19T17:01:50;20.80;99.90
14531;DHT22;7352;50.866;4.366;2023-09-19T17:04:18;20.80;99.90
14531;DHT22;7352;50.866;4.366;2023-09-19T17:06:45;20.80;99.90
14531;DHT22;7352;50.866;4.366;2023-09-19T17:09:12;20.80;99.90
14531;DHT22;7352;50.866;4.366;2023-09-19T17:11:45;20.80;99.90
14531;DHT22;7352;50.866;4.366;2023-09-19T17:14:24;20.80;99.90
14531;DHT22;7352;50.866;4.366;2023-09-19T17:16:52;20.80;99.90
14531;DHT22;7352;50.866;4.366;2023-09-19T17:19:19;20.80;99.90
14531;DHT22;7352;50.866;4.366;2023-09-19T17:21:48;20.70;99.90
14531;DHT22;7352;50.866;4.366;2023-09-19T17:24:15;20.60;99.90
14531;DHT22;7352;50.866;4.366;2023-09-19T17:26:42;20.60;99.90
14531;DHT22;7352;50.866;4.366;2023-09-19T17:29:10;20.50;99.90
14531;DHT22;7352;50.866;4.366;2023-09-19T17:31:37;20.40;99.90
14531;DHT22;7352;50.866;4.366;2023-09-19T17:34:07;20.40;99.90
14531;DHT22;7352;50.866;4.366;2023-09-19T17:36:34;20.40;99.90
14531;DHT22;7352;50.866;4.366;2023-09-19T17:39:01;20.40;99.90
14531;DHT22;7352;50.866;4.366;2023-09-19T17:41:30;20.40;99.90
14531;DHT22;7352;50.866;4.366;2023-09-19T17:43:58;20.40;99.90
14531;DHT22;7352;50.866;4.366;2023-09-19T17:46:26;20.50;99.90
14531;DHT22;7352;50.866;4.366;2023-09-19T17:48:56;20.40;99.90
14531;DHT22;7352;50.866;4.366;2023-09-19T17:51:25;20.40;99.90
14531;DHT22;7352;50.866;4.366;2023-09-19T17:53:53;20.40;99.90
14531;DHT22;7352;50.866;4.366;2023-09-19T17:56:22;20.40;99.90
14531;DHT22;7352;50.866;4.366;2023-09-19T17:58:49;20.50;99.90
14531;DHT22;7352;50.866;4.366;2023-09-19T18:01:20;20.40;99.90
14531;DHT22;7352;50.866;4.366;2023-09-19T18:03:49;20.40;99.90
14531;DHT22;7352;50.866;4.366;2023-09-19T18:06:17;20.40;99.90
14531;DHT22;7352;50.866;4.366;2023-09-19T18:08:46;20.30;99.90
14531;DHT22;7352;50.866;4.366;2023-09-19T18:11:15;20.30;99.90
14531;DHT22;7352;50.866;4.366;2023-09-19T18:13:42;20.30;99.90
14531;DHT22;7352;50.866;4.366;2023-09-19T18:16:10;20.30;99.90
14531;DHT22;7352;50.866;4.366;2023-09-19T18:18:37;20.30;99.90
14531;DHT22;7352;50.866;4.366;2023-09-19T18:21:05;20.40;99.90
14531;DHT22;7352;50.866;4.366;2023-09-19T18:23:33;20.30;99.90
14531;DHT22;7352;50.866;4.366;2023-09-19T18:26:01;20.30;99.90
14531;DHT22;7352;50.866;4.366;2023-09-19T18:28:31;20.20;99.90
14531;DHT22;7352;50.866;4.366;2023-09-19T18:30:58;20.20;99.90
14531;DHT22;7352;50.866;4.366;2023-09-19T18:33:26;20.20;99.90
14531;DHT22;7352;50.866;4.366;2023-09-19T18:35:53;20.20;99.90
14531;DHT22;7352;50.866;4.366;2023-09-19T18:38:27;20.10;99.90
14531;DHT22;7352;50.866;4.366;2023-09-19T18:40:54;20.20;99.90
14531;DHT22;7352;50.866;4.366;2023-09-19T18:43:23;20.20;99.90
14531;DHT22;7352;50.866;4.366;2023-09-19T18:45:56;20.20;99.90
14531;DHT22;7352;50.866;4.366;2023-09-19T18:48:23;20.20;99.90
14531;DHT22;7352;50.866;4.366;2023-09-19T18:50:50;20.40;99.90
14531;DHT22;7352;50.866;4.366;2023-09-19T18:53:17;20.30;99.90
14531;DHT22;7352;50.866;4.366;2023-09-19T18:55:45;20.20;99.90
14531;DHT22;7352;50.866;4.366;2023-09-19T18:58:12;20.30;99.90
14531;DHT22;7352;50.866;4.366;2023-09-19T19:00:40;20.30;99.90
14531;DHT22;7352;50.866;4.366;2023-09-19T19:03:07;20.20;99.90
14531;DHT22;7352;50.866;4.366;2023-09-19T19:05:34;20.20;99.90
14531;DHT22;7352;50.866;4.366;2023-09-19T19:08:02;20.30;99.90
14531;DHT22;7352;50.866;4.366;2023-09-19T19:10:30;20.30;99.90
14531;DHT22;7352;50.866;4.366;2023-09-19T19:12:58;20.20;99.90
14531;DHT22;7352;50.866;4.366;2023-09-19T19:15:26;20.30;99.90
14531;DHT22;7352;50.866;4.366;2023-09-19T19:17:55;20.30;99.90
14531;DHT22;7352;50.866;4.366;2023-09-19T19:20:30;20.40;99.90
14531;DHT22;7352;50.866;4.366;2023-09-19T19:22:59;20.20;99.90
14531;DHT22;7352;50.866;4.366;2023-09-19T19:25:26;20.20;99.90
14531;DHT22;7352;50.866;4.366;2023-09-19T19:27:53;20.10;99.90
14531;DHT22;7352;50.866;4.366;2023-09-19T19:30:21;20.20;99.90
14531;DHT22;7352;50.866;4.366;2023-09-19T19:32:48;20.20;99.90